createdAt,value
2017-09-30T00:01:31.663Z,15.00
2017-09-30T00:03:59.191Z,14.17
2017-09-30T00:06:27.458Z,13.80
2017-09-30T00:08:55.746Z,16.57
2017-09-30T00:11:24.138Z,14.57
2017-09-30T00:13:55.289Z,13.87
2017-09-30T00:16:22.891Z,13.60
2017-09-30T00:18:50.503Z,14.30
2017-09-30T00:21:18.030Z,14.80
2017-09-30T00:23:45.537Z,13.93
2017-09-30T00:26:13.058Z,14.37
2017-09-30T00:28:41.454Z,15.80
2017-09-30T00:31:09.023Z,14.50
2017-09-30T00:33:36.903Z,13.60
2017-09-30T00:36:04.438Z,14.97
2017-09-30T00:38:31.949Z,14.90
2017-09-30T00:40:59.470Z,13.77
2017-09-30T00:43:27.019Z,13.20
2017-09-30T00:45:54.585Z,14.13
2017-09-30T00:48:22.085Z,14.87
2017-09-30T00:50:49.614Z,14.43
2017-09-30T00:53:17.147Z,14.10
2017-09-30T00:55:45.550Z,14.63
2017-09-30T00:58:13.086Z,14.30
2017-09-30T01:00:40.743Z,15.07
2017-09-30T01:03:08.371Z,14.03
2017-09-30T01:05:35.882Z,15.60
2017-09-30T01:08:03.405Z,15.77
2017-09-30T01:10:31.675Z,12.87
2017-09-30T01:12:59.973Z,14.87
2017-09-30T01:15:27.539Z,15.23
2017-09-30T01:17:55.091Z,15.10
2017-09-30T01:20:22.711Z,14.83
2017-09-30T01:22:51.855Z,14.63
2017-09-30T01:25:19.358Z,15.10
2017-09-30T01:27:46.898Z,15.33
2017-09-30T01:30:14.422Z,14.80
2017-09-30T01:32:41.995Z,14.10
2017-09-30T01:35:09.552Z,15.00
2017-09-30T01:37:37.058Z,14.53
2017-09-30T01:40:04.659Z,15.50
2017-09-30T01:42:32.223Z,13.80
2017-09-30T01:44:59.779Z,14.63
2017-09-30T01:47:27.336Z,14.30
2017-09-30T01:49:54.858Z,14.77
2017-09-30T01:52:22.368Z,14.80
2017-09-30T01:54:49.906Z,14.57
2017-09-30T01:57:18.250Z,13.80
2017-09-30T01:59:45.846Z,14.23
2017-09-30T02:02:13.355Z,14.03
2017-09-30T02:04:40.962Z,15.00
2017-09-30T02:07:08.470Z,15.37
2017-09-30T02:09:36.799Z,14.40
2017-09-30T02:12:05.287Z,13.47
2017-09-30T02:14:32.791Z,13.00
2017-09-30T02:17:00.400Z,13.20
2017-09-30T02:19:27.906Z,13.33
2017-09-30T02:21:56.327Z,13.70
2017-09-30T02:24:24.589Z,15.67
2017-09-30T02:26:53.606Z,15.17
2017-09-30T02:29:21.110Z,14.17
2017-09-30T02:31:48.735Z,13.83
2017-09-30T02:34:16.239Z,15.13
2017-09-30T02:36:43.764Z,13.77
2017-09-30T02:39:11.303Z,14.33
2017-09-30T02:41:38.846Z,14.40
2017-09-30T02:44:09.896Z,14.67
2017-09-30T02:46:37.411Z,14.70
2017-09-30T02:49:05.631Z,14.23
2017-09-30T02:51:33.138Z,14.40
2017-09-30T02:54:00.662Z,14.80
2017-09-30T02:56:28.167Z,14.10
2017-09-30T02:58:55.687Z,15.57
2017-09-30T03:01:23.195Z,15.47
2017-09-30T03:03:51.494Z,14.77
2017-09-30T03:06:19.049Z,13.37
2017-09-30T03:08:47.331Z,14.13
2017-09-30T03:11:14.890Z,15.43
2017-09-30T03:13:42.448Z,14.63
2017-09-30T03:16:10.087Z,14.80
2017-09-30T03:18:38.386Z,15.50
2017-09-30T03:21:05.894Z,15.57
2017-09-30T03:23:33.504Z,16.10
2017-09-30T03:26:01.779Z,15.60
2017-09-30T03:28:29.286Z,16.90
2017-09-30T03:30:56.895Z,15.43
2017-09-30T03:33:24.479Z,17.30
2017-09-30T03:35:52.735Z,15.93
2017-09-30T03:38:20.243Z,16.27
2017-09-30T03:40:48.607Z,15.10
2017-09-30T03:43:16.107Z,15.20
2017-09-30T03:45:44.498Z,15.57
2017-09-30T03:48:12.062Z,15.63
2017-09-30T03:50:39.614Z,15.77
2017-09-30T03:53:07.882Z,14.97
2017-09-30T03:55:36.166Z,14.80
2017-09-30T03:58:03.729Z,15.20
2017-09-30T04:00:31.290Z,15.30
2017-09-30T04:02:58.795Z,15.33
2017-09-30T04:05:26.302Z,17.60
2017-09-30T04:07:54.687Z,17.83
2017-09-30T04:10:22.902Z,15.90
2017-09-30T04:12:50.419Z,16.10
2017-09-30T04:15:17.922Z,15.23
2017-09-30T04:17:45.447Z,15.27
2017-09-30T04:20:12.950Z,15.87
2017-09-30T04:22:40.552Z,16.03
2017-09-30T04:25:08.059Z,17.20
2017-09-30T04:27:35.669Z,19.27
2017-09-30T04:30:03.242Z,16.40
2017-09-30T04:32:30.786Z,15.93
2017-09-30T04:34:58.347Z,18.23
2017-09-30T04:37:25.901Z,18.33
2017-09-30T04:39:53.406Z,15.77
2017-09-30T04:42:20.927Z,17.13
2017-09-30T04:44:48.484Z,17.13
2017-09-30T04:47:16.020Z,15.90
2017-09-30T04:49:44.295Z,16.67
2017-09-30T04:52:12.602Z,16.70
2017-09-30T04:54:40.118Z,20.00
2017-09-30T04:57:07.707Z,19.83
2017-09-30T04:59:35.262Z,17.73
2017-09-30T05:02:02.828Z,19.03
2017-09-30T05:04:30.354Z,19.23
2017-09-30T05:06:58.639Z,20.33
2017-09-30T05:09:26.922Z,19.83
2017-09-30T05:11:55.190Z,23.60
2017-09-30T05:14:23.588Z,20.30
2017-09-30T05:16:51.099Z,21.40
2017-09-30T05:19:18.705Z,23.03
2017-09-30T05:21:46.266Z,21.80
2017-09-30T05:24:13.927Z,22.80
2017-09-30T05:26:41.591Z,25.20
2017-09-30T05:29:09.147Z,26.60
2017-09-30T05:31:36.670Z,23.33
2017-09-30T05:34:04.267Z,24.53
2017-09-30T05:36:31.830Z,24.47
2017-09-30T05:38:59.339Z,24.10
2017-09-30T05:41:26.859Z,21.47
2017-09-30T05:43:54.397Z,24.90
2017-09-30T05:46:21.915Z,23.77
2017-09-30T05:48:49.419Z,24.33
2017-09-30T05:51:17.807Z,24.83
2017-09-30T05:53:45.917Z,25.57
2017-09-30T05:56:14.274Z,24.87
2017-09-30T05:58:41.902Z,24.47
2017-09-30T06:01:09.423Z,23.30
2017-09-30T06:03:37.022Z,24.67
2017-09-30T06:06:04.542Z,28.63
2017-09-30T06:08:32.141Z,23.70
2017-09-30T06:10:59.662Z,24.87
2017-09-30T06:13:27.250Z,25.03
2017-09-30T06:15:55.539Z,26.90
2017-09-30T06:18:23.095Z,27.17
2017-09-30T06:20:50.642Z,24.83
2017-09-30T06:23:18.210Z,24.03
2017-09-30T06:25:45.767Z,24.40
2017-09-30T06:28:13.291Z,29.00
2017-09-30T06:30:40.806Z,24.97
2017-09-30T06:33:08.326Z,23.20
2017-09-30T06:35:36.593Z,25.43
2017-09-30T06:38:04.878Z,23.93
2017-09-30T06:40:33.170Z,25.60
2017-09-30T06:43:01.402Z,21.80
2017-09-30T06:45:28.911Z,22.13
2017-09-30T06:47:56.426Z,23.40
2017-09-30T06:50:23.931Z,24.10
2017-09-30T06:52:51.479Z,24.40
2017-09-30T06:55:19.801Z,24.60
2017-09-30T06:57:47.428Z,29.97
2017-09-30T07:00:14.974Z,25.70
2017-09-30T07:02:42.494Z,27.50
2017-09-30T07:05:10.096Z,25.07
2017-09-30T07:07:37.639Z,23.90
2017-09-30T07:10:05.154Z,24.17
2017-09-30T07:12:32.666Z,26.70
2017-09-30T07:15:00.186Z,24.90
2017-09-30T07:17:27.694Z,26.70
2017-09-30T07:19:55.218Z,26.97
2017-09-30T07:22:23.482Z,26.40
2017-09-30T07:24:51.770Z,25.53
2017-09-30T07:27:20.042Z,26.50
2017-09-30T07:29:48.330Z,25.17
2017-09-30T07:32:16.632Z,25.60
2017-09-30T07:34:44.179Z,28.07
2017-09-30T07:37:11.688Z,24.77
2017-09-30T07:39:39.210Z,27.47
2017-09-30T07:42:07.435Z,26.07
2017-09-30T07:44:34.982Z,26.03
2017-09-30T07:47:03.319Z,23.63
2017-09-30T07:49:30.826Z,25.10
2017-09-30T07:51:58.422Z,23.80
2017-09-30T07:54:25.931Z,22.30
2017-09-30T07:56:53.454Z,21.73
2017-09-30T07:59:20.958Z,21.13
2017-09-30T08:01:48.554Z,21.57
2017-09-30T08:04:17.146Z,21.13
2017-09-30T08:06:44.700Z,20.67
2017-09-30T08:09:12.260Z,20.33
2017-09-30T08:11:40.535Z,20.43
2017-09-30T08:14:08.899Z,22.03
2017-09-30T08:16:37.295Z,20.83
2017-09-30T08:19:04.851Z,20.70
2017-09-30T08:21:32.411Z,21.30
2017-09-30T08:24:00.007Z,20.30
2017-09-30T08:26:27.536Z,19.03
2017-09-30T08:28:55.043Z,19.80
2017-09-30T08:31:22.646Z,20.40
2017-09-30T08:33:50.204Z,18.70
2017-09-30T08:36:17.824Z,18.03
2017-09-30T08:38:45.351Z,20.07
2017-09-30T08:41:12.887Z,21.50
2017-09-30T08:43:40.431Z,20.17
2017-09-30T08:46:08.011Z,22.40
2017-09-30T08:48:35.556Z,22.07
2017-09-30T08:51:03.124Z,22.00
2017-09-30T08:53:30.846Z,21.97
2017-09-30T08:55:58.354Z,20.40
2017-09-30T08:58:25.896Z,20.70
2017-09-30T09:00:53.563Z,18.87
2017-09-30T09:03:21.083Z,16.87
2017-09-30T09:05:48.590Z,17.73
2017-09-30T09:08:16.194Z,14.93
2017-09-30T09:10:43.744Z,14.13
2017-09-30T09:13:12.162Z,13.20
2017-09-30T09:15:39.722Z,12.43
2017-09-30T09:18:08.106Z,11.60
2017-09-30T09:20:35.667Z,10.70
2017-09-30T09:23:03.195Z,12.73
2017-09-30T09:25:30.783Z,11.80
2017-09-30T09:27:59.163Z,12.70
2017-09-30T09:30:26.723Z,11.50
2017-09-30T09:32:54.230Z,11.40
2017-09-30T09:35:21.852Z,14.20
2017-09-30T09:37:49.635Z,14.87
2017-09-30T09:40:17.231Z,13.13
2017-09-30T09:42:44.837Z,13.07
2017-09-30T09:45:12.359Z,12.73
2017-09-30T09:47:40.630Z,12.63
2017-09-30T09:50:08.255Z,10.90
2017-09-30T09:52:35.779Z,12.50
2017-09-30T09:55:03.334Z,13.97
2017-09-30T09:57:30.898Z,11.80
2017-09-30T09:59:58.423Z,12.20
2017-09-30T10:02:26.016Z,13.67
2017-09-30T10:04:53.571Z,15.23
2017-09-30T10:07:21.084Z,14.93
2017-09-30T10:09:48.699Z,13.03
2017-09-30T10:12:16.350Z,14.53
2017-09-30T10:14:44.739Z,12.70
2017-09-30T10:17:12.246Z,11.70
2017-09-30T10:19:39.766Z,10.30
2017-09-30T10:22:07.407Z,10.70
2017-09-30T10:24:35.023Z,10.93
2017-09-30T10:27:02.623Z,8.87
2017-09-30T10:29:30.123Z,10.07
2017-09-30T10:31:57.639Z,9.37
2017-09-30T10:34:25.146Z,9.37
2017-09-30T10:36:52.664Z,8.40
2017-09-30T10:39:20.214Z,7.93
2017-09-30T10:41:47.775Z,9.27
2017-09-30T10:44:15.383Z,8.10
2017-09-30T10:46:43.823Z,8.20
2017-09-30T10:49:11.380Z,7.70
2017-09-30T10:51:38.895Z,7.47
2017-09-30T10:54:06.395Z,8.07
2017-09-30T10:56:33.950Z,8.07
2017-09-30T10:59:01.502Z,7.33
2017-09-30T11:01:29.883Z,8.40
2017-09-30T11:03:57.751Z,8.83
2017-09-30T11:06:25.257Z,7.70
2017-09-30T11:08:52.779Z,7.80
2017-09-30T11:11:20.327Z,8.00
2017-09-30T11:13:47.942Z,7.90
2017-09-30T11:16:15.443Z,7.40
2017-09-30T11:18:42.981Z,7.83
2017-09-30T11:21:11.255Z,9.50
2017-09-30T11:23:39.542Z,7.80
2017-09-30T11:26:07.811Z,7.57
2017-09-30T11:28:36.102Z,7.93
2017-09-30T11:31:03.663Z,7.20
2017-09-30T11:33:31.228Z,8.30
2017-09-30T11:35:58.796Z,7.60
2017-09-30T11:38:26.327Z,7.47
2017-09-30T11:40:54.596Z,7.17
2017-09-30T11:43:22.894Z,7.57
2017-09-30T11:45:50.451Z,8.00
2017-09-30T11:48:18.715Z,7.90
2017-09-30T11:50:47.004Z,10.80
2017-09-30T11:53:14.515Z,7.40
2017-09-30T11:55:42.036Z,8.40
2017-09-30T11:58:09.574Z,8.20
2017-09-30T12:00:37.090Z,8.67
2017-09-30T12:03:04.695Z,7.53
2017-09-30T12:05:32.254Z,8.07
2017-09-30T12:07:59.750Z,7.23
2017-09-30T12:10:27.297Z,7.17
2017-09-30T12:12:54.828Z,7.80
2017-09-30T12:15:22.356Z,7.77
2017-09-30T12:17:50.679Z,7.90
2017-09-30T12:20:18.270Z,8.30
2017-09-30T12:22:45.778Z,8.37
2017-09-30T12:25:14.167Z,8.40
2017-09-30T12:27:41.719Z,9.23
2017-09-30T12:30:09.303Z,9.07
2017-09-30T12:32:36.851Z,9.07
2017-09-30T12:35:04.383Z,8.80
2017-09-30T12:37:32.675Z,10.60
2017-09-30T12:40:00.179Z,10.30
2017-09-30T12:42:27.795Z,10.20
2017-09-30T12:44:55.298Z,9.77
2017-09-30T12:47:22.819Z,10.07
2017-09-30T12:49:50.331Z,10.30
2017-09-30T12:52:17.922Z,10.87
2017-09-30T12:54:45.842Z,10.70
2017-09-30T12:57:14.875Z,12.10
2017-09-30T12:59:43.174Z,11.70
2017-09-30T13:02:11.518Z,13.07
2017-09-30T13:04:39.815Z,13.03
2017-09-30T13:07:07.388Z,12.97
2017-09-30T13:09:34.895Z,12.27
2017-09-30T13:12:02.505Z,13.23
2017-09-30T13:14:30.050Z,15.23
2017-09-30T13:16:57.579Z,12.60
2017-09-30T13:19:25.850Z,14.00
2017-09-30T13:21:53.475Z,13.13
2017-09-30T13:24:21.619Z,12.37
2017-09-30T13:26:49.144Z,13.23
2017-09-30T13:29:16.736Z,13.50
2017-09-30T13:31:44.263Z,13.70
2017-09-30T13:34:12.538Z,13.53
2017-09-30T13:36:40.847Z,11.87
2017-09-30T13:39:09.227Z,13.30
2017-09-30T13:41:36.788Z,12.50
2017-09-30T13:44:04.316Z,14.13
2017-09-30T13:46:32.591Z,14.20
2017-09-30T13:49:00.885Z,13.70
2017-09-30T13:51:28.479Z,13.23
2017-09-30T13:53:56.003Z,13.77
2017-09-30T13:56:24.282Z,12.30
2017-09-30T13:58:51.911Z,14.83
2017-09-30T14:01:20.123Z,12.93
2017-09-30T14:03:47.679Z,13.00
2017-09-30T14:06:15.815Z,14.00
2017-09-30T14:08:43.415Z,11.87
2017-09-30T14:11:10.926Z,11.70
2017-09-30T14:13:38.451Z,13.27
2017-09-30T14:16:05.983Z,11.73
2017-09-30T14:18:33.699Z,13.70
2017-09-30T14:21:01.311Z,14.20
2017-09-30T14:23:28.859Z,13.27
2017-09-30T14:25:56.370Z,13.93
2017-09-30T14:28:23.881Z,14.00
2017-09-30T14:30:51.435Z,14.10
2017-09-30T14:33:19.733Z,13.60
2017-09-30T14:35:47.256Z,14.83
2017-09-30T14:38:15.535Z,13.97
2017-09-30T14:40:44.530Z,14.77
2017-09-30T14:43:12.927Z,15.13
2017-09-30T14:45:40.603Z,14.70
2017-09-30T14:48:08.149Z,15.43
2017-09-30T14:50:35.767Z,15.37
2017-09-30T14:53:03.276Z,16.50
2017-09-30T14:55:30.799Z,16.10
2017-09-30T14:57:59.123Z,15.27
2017-09-30T15:00:26.647Z,13.93
2017-09-30T15:02:54.935Z,14.43
2017-09-30T15:05:22.495Z,12.97
2017-09-30T15:07:49.998Z,10.80
2017-09-30T15:10:17.643Z,8.23
2017-09-30T15:12:45.147Z,8.27
2017-09-30T15:15:13.447Z,7.07
2017-09-30T15:17:41.003Z,5.60
2017-09-30T15:20:08.603Z,5.90
2017-09-30T15:22:36.119Z,7.03
2017-09-30T15:25:03.694Z,6.63
2017-09-30T15:27:31.210Z,5.27
2017-09-30T15:29:58.803Z,5.97
2017-09-30T15:32:26.359Z,6.60
2017-09-30T15:34:53.986Z,5.50
2017-09-30T15:37:21.516Z,5.67
2017-09-30T15:39:49.023Z,6.00
2017-09-30T15:42:17.320Z,6.53
2017-09-30T15:44:44.866Z,4.70
2017-09-30T15:47:12.514Z,4.20
2017-09-30T15:49:40.812Z,4.40
2017-09-30T15:52:09.087Z,4.53
2017-09-30T15:54:36.587Z,3.77
2017-09-30T15:57:04.115Z,4.40
2017-09-30T15:59:31.614Z,3.47
2017-09-30T16:01:59.130Z,4.10
2017-09-30T16:04:26.648Z,2.77
2017-09-30T16:06:54.942Z,4.60
2017-09-30T16:09:23.351Z,4.37
2017-09-30T16:11:50.859Z,2.63
2017-09-30T16:14:19.187Z,2.47
2017-09-30T16:16:47.053Z,3.37
2017-09-30T16:19:14.592Z,2.33
2017-09-30T16:21:42.774Z,3.33
2017-09-30T16:24:10.318Z,2.70
2017-09-30T16:26:37.875Z,2.93
2017-09-30T16:29:05.575Z,2.50
2017-09-30T16:31:33.078Z,4.17
2017-09-30T16:34:01.387Z,3.30
2017-09-30T16:36:28.907Z,3.27
2017-09-30T16:38:56.504Z,3.40
2017-09-30T16:41:24.056Z,3.40
2017-09-30T16:43:51.560Z,2.53
2017-09-30T16:46:19.179Z,2.83
2017-09-30T16:48:46.731Z,2.63
2017-09-30T16:51:14.295Z,4.20
2017-09-30T16:53:41.798Z,2.23
2017-09-30T16:56:09.310Z,4.17
2017-09-30T16:58:36.811Z,2.07
2017-09-30T17:01:04.327Z,3.60
2017-09-30T17:03:32.605Z,2.43
2017-09-30T17:06:00.135Z,2.80
2017-09-30T17:08:28.411Z,3.90
2017-09-30T17:10:56.751Z,2.40
2017-09-30T17:13:24.250Z,2.23
2017-09-30T17:15:52.554Z,3.57
2017-09-30T17:18:20.159Z,2.33
2017-09-30T17:20:47.679Z,3.93
2017-09-30T17:23:15.220Z,3.17
2017-09-30T17:25:42.725Z,2.80
2017-09-30T17:28:10.244Z,3.00
2017-09-30T17:30:37.989Z,2.90
2017-09-30T17:33:05.555Z,2.40
2017-09-30T17:35:33.423Z,3.30
2017-09-30T17:38:01.075Z,2.37
2017-09-30T17:40:28.644Z,2.10
2017-09-30T17:42:56.803Z,2.90
2017-09-30T17:45:25.077Z,3.10
2017-09-30T17:47:53.367Z,2.20
2017-09-30T17:50:21.605Z,2.60
2017-09-30T17:52:49.202Z,2.57
2017-09-30T17:55:16.703Z,2.70
2017-09-30T17:57:44.287Z,2.90
2017-09-30T18:00:12.815Z,2.80
2017-09-30T18:02:40.476Z,2.40
2017-09-30T18:05:07.982Z,2.40
2017-09-30T18:07:35.500Z,2.10
2017-09-30T18:10:03.011Z,2.17
2017-09-30T18:12:31.298Z,2.10
2017-09-30T18:14:59.587Z,2.63
2017-09-30T18:17:27.261Z,2.47
2017-09-30T18:19:54.811Z,2.50
2017-09-30T18:22:22.356Z,3.13
2017-09-30T18:24:50.657Z,3.63
2017-09-30T18:27:18.206Z,2.90
2017-09-30T18:29:45.727Z,3.07
2017-09-30T18:32:13.324Z,2.70
2017-09-30T18:34:40.879Z,2.73
2017-09-30T18:37:08.643Z,2.23
2017-09-30T18:39:36.163Z,2.83
2017-09-30T18:42:03.668Z,3.43
2017-09-30T18:44:31.183Z,1.90
2017-09-30T18:46:58.770Z,2.23
2017-09-30T18:49:26.442Z,3.23
2017-09-30T18:51:54.022Z,2.43
2017-09-30T18:54:21.542Z,2.40
2017-09-30T18:56:49.815Z,2.20
2017-09-30T18:59:18.098Z,3.00
2017-09-30T19:01:46.363Z,2.30
2017-09-30T19:04:14.658Z,2.73
2017-09-30T19:06:42.223Z,2.03
2017-09-30T19:09:09.750Z,2.10
2017-09-30T19:11:38.054Z,2.13
2017-09-30T19:14:05.919Z,3.57
2017-09-30T19:16:33.475Z,2.33
2017-09-30T19:19:00.975Z,3.17
2017-09-30T19:21:28.495Z,3.00
2017-09-30T19:23:56.003Z,2.80
2017-09-30T19:26:23.524Z,2.50
2017-09-30T19:28:51.024Z,2.40
2017-09-30T19:31:18.559Z,4.70
2017-09-30T19:33:46.059Z,6.03
2017-09-30T19:36:14.344Z,2.73
2017-09-30T19:38:42.648Z,2.97
2017-09-30T19:41:10.171Z,3.00
2017-09-30T19:43:38.477Z,3.60
2017-09-30T19:46:06.015Z,3.20
2017-09-30T19:48:34.303Z,2.60
2017-09-30T19:51:01.868Z,2.73
2017-09-30T19:53:29.370Z,3.20
2017-09-30T19:55:56.979Z,6.30
2017-09-30T19:58:24.503Z,2.80
2017-09-30T20:00:52.009Z,3.50
2017-09-30T20:03:19.556Z,2.67
2017-09-30T20:05:47.128Z,5.00
2017-09-30T20:08:14.646Z,3.10
2017-09-30T20:10:42.916Z,2.53
2017-09-30T20:13:10.430Z,2.93
2017-09-30T20:15:38.711Z,4.27
2017-09-30T20:18:06.843Z,3.27
2017-09-30T20:20:35.119Z,3.43
2017-09-30T20:23:02.704Z,3.10
2017-09-30T20:25:30.251Z,3.10
2017-09-30T20:27:57.767Z,3.10
2017-09-30T20:30:25.368Z,3.00
2017-09-30T20:32:52.923Z,2.50
2017-09-30T20:35:20.423Z,2.23
2017-09-30T20:37:48.043Z,4.50
2017-09-30T20:40:15.612Z,3.97
2017-09-30T20:42:43.115Z,3.73
2017-09-30T20:45:10.636Z,3.10
2017-09-30T20:47:38.145Z,3.10
2017-09-30T20:50:06.431Z,3.10
2017-09-30T20:52:34.730Z,2.93
2017-09-30T20:55:02.287Z,2.53
2017-09-30T20:57:29.847Z,4.83
2017-09-30T20:59:57.403Z,3.40
2017-09-30T21:02:24.965Z,3.30
2017-09-30T21:04:52.487Z,3.70
2017-09-30T21:07:21.516Z,3.37
2017-09-30T21:09:49.080Z,3.23
2017-09-30T21:12:17.363Z,4.00
2017-09-30T21:14:44.986Z,3.60
2017-09-30T21:17:13.295Z,3.60
2017-09-30T21:19:40.815Z,7.47
2017-09-30T21:22:08.322Z,4.30
2017-09-30T21:24:35.847Z,4.20
2017-09-30T21:27:03.360Z,4.40
2017-09-30T21:29:30.879Z,5.27
2017-09-30T21:31:59.343Z,5.43
2017-09-30T21:34:27.639Z,5.40
2017-09-30T21:36:55.144Z,5.20
2017-09-30T21:39:22.755Z,5.20
2017-09-30T21:41:50.694Z,5.83
2017-09-30T21:44:18.999Z,6.30
2017-09-30T21:46:46.519Z,5.80
2017-09-30T21:49:14.024Z,5.50
2017-09-30T21:51:41.667Z,5.63
2017-09-30T21:54:09.171Z,5.97
2017-09-30T21:56:36.687Z,6.10
2017-09-30T21:59:04.923Z,5.33
2017-09-30T22:01:32.518Z,5.57
2017-09-30T22:04:00.083Z,7.13
2017-09-30T22:06:27.639Z,6.10
2017-09-30T22:08:55.199Z,6.80
2017-09-30T22:11:22.763Z,6.20
2017-09-30T22:13:50.262Z,5.47
2017-09-30T22:16:17.874Z,5.73
2017-09-30T22:18:45.379Z,7.77
2017-09-30T22:21:12.894Z,6.90
2017-09-30T22:23:41.183Z,6.50
2017-09-30T22:26:09.347Z,5.30
2017-09-30T22:28:37.619Z,5.67
2017-09-30T22:31:05.183Z,5.67
2017-09-30T22:33:32.942Z,5.67
2017-09-30T22:36:00.443Z,5.70
2017-09-30T22:38:27.962Z,5.80
2017-09-30T22:40:56.330Z,5.30
2017-09-30T22:43:24.971Z,5.20
2017-09-30T22:45:53.299Z,5.00
2017-09-30T22:48:20.860Z,5.50
2017-09-30T22:50:49.070Z,5.80
2017-09-30T22:53:16.607Z,5.13
2017-09-30T22:55:44.152Z,5.77
2017-09-30T22:58:11.708Z,7.53
2017-09-30T23:00:39.223Z,6.83
2017-09-30T23:03:06.722Z,7.10
2017-09-30T23:05:34.243Z,6.07
2017-09-30T23:08:02.494Z,5.90
2017-09-30T23:10:30.113Z,6.53
2017-09-30T23:12:57.687Z,5.80
2017-09-30T23:15:25.215Z,6.47
2017-09-30T23:17:54.355Z,5.20
2017-09-30T23:20:21.882Z,5.27
2017-09-30T23:22:49.453Z,4.77
2017-09-30T23:25:16.978Z,5.67
2017-09-30T23:27:45.247Z,4.50
2017-09-30T23:30:12.835Z,4.70
2017-09-30T23:32:40.334Z,4.00
2017-09-30T23:35:07.942Z,4.40
2017-09-30T23:37:36.211Z,4.30
2017-09-30T23:40:04.509Z,3.60
2017-09-30T23:42:32.015Z,3.10
2017-09-30T23:44:59.627Z,4.30
2017-09-30T23:47:27.162Z,3.90
2017-09-30T23:49:55.470Z,4.20
2017-09-30T23:52:23.852Z,4.27
2017-09-30T23:54:51.374Z,3.40
2017-09-30T23:57:20.032Z,3.90
2017-09-30T23:59:47.639Z,2.63
